Terminal Aerodrome Forecast
Issued by NWS Hastings, NE

Home | Current Version | Previous Version | Text Only | Print | Product List | Glossary On
Versions: 1 2 3 4 5 6 7 8 9 10 11 12 13 14 15 16 17 18 19 20 21 22
000
FTUS43 KGID 262105 AAA
TAFGRI
TAF AMD
KGRI 262105Z 2621/2718 07014KT P6SM SCT150
     FM262300 09011KT P6SM VCTS BKN040CB
     FM270600 12009KT 5SM BR VCTS BKN008CB
     FM271400 14008KT P6SM VCTS BKN015CB=

USA.gov is the U.S. government's official web portal to all federal, state and local government web resources and services.